sensor_id;sensor_type;location;lat;lon;timestamp;temperature;humidity
3850;DHT22;1940;51.052;13.678;2023-12-14T00:00:19;7.70;95.20
3850;DHT22;1940;51.052;13.678;2023-12-14T00:02:44;7.70;95.10
3850;DHT22;1940;51.052;13.678;2023-12-14T00:05:10;7.70;94.90
3850;DHT22;1940;51.052;13.678;2023-12-14T00:07:35;7.70;94.80
3850;DHT22;1940;51.052;13.678;2023-12-14T00:10:01;7.70;94.70
3850;DHT22;1940;51.052;13.678;2023-12-14T00:12:26;7.60;94.80
3850;DHT22;1940;51.052;13.678;2023-12-14T00:14:52;7.60;94.80
3850;DHT22;1940;51.052;13.678;2023-12-14T00:17:17;7.70;94.80
3850;DHT22;1940;51.052;13.678;2023-12-14T00:19:43;7.70;94.70
3850;DHT22;1940;51.052;13.678;2023-12-14T00:22:08;7.60;94.70
3850;DHT22;1940;51.052;13.678;2023-12-14T00:24:34;7.50;94.90
3850;DHT22;1940;51.052;13.678;2023-12-14T00:26:59;7.60;94.90
3850;DHT22;1940;51.052;13.678;2023-12-14T00:29:25;7.60;94.80
3850;DHT22;1940;51.052;13.678;2023-12-14T00:31:50;7.60;94.80
3850;DHT22;1940;51.052;13.678;2023-12-14T00:34:16;7.60;94.80
3850;DHT22;1940;51.052;13.678;2023-12-14T00:36:41;7.50;94.60
3850;DHT22;1940;51.052;13.678;2023-12-14T00:39:08;7.50;94.80
3850;DHT22;1940;51.052;13.678;2023-12-14T00:41:34;7.50;94.90
3850;DHT22;1940;51.052;13.678;2023-12-14T00:44:00;7.50;94.90
3850;DHT22;1940;51.052;13.678;2023-12-14T00:46:25;7.50;94.80
3850;DHT22;1940;51.052;13.678;2023-12-14T00:48:51;7.40;94.80
3850;DHT22;1940;51.052;13.678;2023-12-14T00:51:16;7.40;94.90
3850;DHT22;1940;51.052;13.678;2023-12-14T00:53:42;7.40;94.80
3850;DHT22;1940;51.052;13.678;2023-12-14T00:56:08;7.20;95.00
3850;DHT22;1940;51.052;13.678;2023-12-14T00:58:34;7.10;95.20
3850;DHT22;1940;51.052;13.678;2023-12-14T01:00:59;7.00;95.20
3850;DHT22;1940;51.052;13.678;2023-12-14T01:03:25;6.90;95.20
3850;DHT22;1940;51.052;13.678;2023-12-14T01:05:50;7.00;95.20
3850;DHT22;1940;51.052;13.678;2023-12-14T01:08:16;7.00;95.20
3850;DHT22;1940;51.052;13.678;2023-12-14T01:10:42;7.00;95.20
3850;DHT22;1940;51.052;13.678;2023-12-14T01:13:08;7.00;95.20
3850;DHT22;1940;51.052;13.678;2023-12-14T01:15:33;7.10;95.20
3850;DHT22;1940;51.052;13.678;2023-12-14T01:17:59;7.10;95.20
3850;DHT22;1940;51.052;13.678;2023-12-14T01:20:24;7.10;95.20
3850;DHT22;1940;51.052;13.678;2023-12-14T01:22:50;7.10;95.20
3850;DHT22;1940;51.052;13.678;2023-12-14T01:25:15;7.10;95.20
3850;DHT22;1940;51.052;13.678;2023-12-14T01:27:41;7.10;95.20
3850;DHT22;1940;51.052;13.678;2023-12-14T01:30:07;7.20;95.20
3850;DHT22;1940;51.052;13.678;2023-12-14T01:32:33;7.20;95.20
3850;DHT22;1940;51.052;13.678;2023-12-14T01:34:58;7.20;95.20
3850;DHT22;1940;51.052;13.678;2023-12-14T01:37:24;7.20;95.20
3850;DHT22;1940;51.052;13.678;2023-12-14T01:39:49;7.20;95.20
3850;DHT22;1940;51.052;13.678;2023-12-14T01:42:15;7.20;95.00
3850;DHT22;1940;51.052;13.678;2023-12-14T01:44:40;7.20;95.20
3850;DHT22;1940;51.052;13.678;2023-12-14T01:47:06;7.10;95.20
3850;DHT22;1940;51.052;13.678;2023-12-14T01:49:31;7.10;95.20
3850;DHT22;1940;51.052;13.678;2023-12-14T01:51:57;7.10;95.20
3850;DHT22;1940;51.052;13.678;2023-12-14T01:54:22;7.10;95.20
3850;DHT22;1940;51.052;13.678;2023-12-14T01:56:47;7.10;95.20
3850;DHT22;1940;51.052;13.678;2023-12-14T01:59:13;7.10;95.20
3850;DHT22;1940;51.052;13.678;2023-12-14T02:01:42;7.10;95.20
3850;DHT22;1940;51.052;13.678;2023-12-14T02:04:08;7.20;95.20
3850;DHT22;1940;51.052;13.678;2023-12-14T02:06:33;7.20;95.20
3850;DHT22;1940;51.052;13.678;2023-12-14T02:08:59;7.20;95.20
3850;DHT22;1940;51.052;13.678;2023-12-14T02:11:24;7.20;95.20
3850;DHT22;1940;51.052;13.678;2023-12-14T02:13:50;7.20;95.20
3850;DHT22;1940;51.052;13.678;2023-12-14T02:16:15;7.20;95.20
3850;DHT22;1940;51.052;13.678;2023-12-14T02:18:41;7.20;95.20
3850;DHT22;1940;51.052;13.678;2023-12-14T02:21:06;7.20;95.20
3850;DHT22;1940;51.052;13.678;2023-12-14T02:23:32;7.20;95.20
3850;DHT22;1940;51.052;13.678;2023-12-14T02:25:58;7.20;95.20
3850;DHT22;1940;51.052;13.678;2023-12-14T02:28:24;7.20;95.20
3850;DHT22;1940;51.052;13.678;2023-12-14T02:30:49;7.30;95.20
3850;DHT22;1940;51.052;13.678;2023-12-14T02:33:15;7.30;95.20
3850;DHT22;1940;51.052;13.678;2023-12-14T02:35:40;7.30;95.20
3850;DHT22;1940;51.052;13.678;2023-12-14T02:38:06;7.30;95.20
3850;DHT22;1940;51.052;13.678;2023-12-14T02:40:31;7.30;95.20
3850;DHT22;1940;51.052;13.678;2023-12-14T02:42:57;7.30;95.20
3850;DHT22;1940;51.052;13.678;2023-12-14T02:45:22;7.30;95.20
3850;DHT22;1940;51.052;13.678;2023-12-14T02:47:48;7.30;95.20
3850;DHT22;1940;51.052;13.678;2023-12-14T02:50:15;7.20;95.20
3850;DHT22;1940;51.052;13.678;2023-12-14T02:52:40;7.10;95.20
3850;DHT22;1940;51.052;13.678;2023-12-14T02:55:06;7.10;95.20
3850;DHT22;1940;51.052;13.678;2023-12-14T02:57:32;7.20;95.20
3850;DHT22;1940;51.052;13.678;2023-12-14T02:59:57;7.20;95.20
3850;DHT22;1940;51.052;13.678;2023-12-14T03:02:23;7.30;95.20
3850;DHT22;1940;51.052;13.678;2023-12-14T03:04:48;7.30;95.20
3850;DHT22;1940;51.052;13.678;2023-12-14T03:07:13;7.30;95.20
3850;DHT22;1940;51.052;13.678;2023-12-14T03:09:40;7.30;95.20
3850;DHT22;1940;51.052;13.678;2023-12-14T03:12:08;7.30;95.20
3850;DHT22;1940;51.052;13.678;2023-12-14T03:14:34;7.20;95.20
3850;DHT22;1940;51.052;13.678;2023-12-14T03:16:59;7.20;95.20
3850;DHT22;1940;51.052;13.678;2023-12-14T03:19:25;7.30;95.20
3850;DHT22;1940;51.052;13.678;2023-12-14T03:21:50;7.30;95.20
3850;DHT22;1940;51.052;13.678;2023-12-14T03:24:16;7.20;95.20
3850;DHT22;1940;51.052;13.678;2023-12-14T03:26:42;7.20;95.20
3850;DHT22;1940;51.052;13.678;2023-12-14T03:29:08;7.20;95.20
3850;DHT22;1940;51.052;13.678;2023-12-14T03:31:33;7.20;95.20
3850;DHT22;1940;51.052;13.678;2023-12-14T03:33:59;7.20;95.20
3850;DHT22;1940;51.052;13.678;2023-12-14T03:36:25;7.10;95.20
3850;DHT22;1940;51.052;13.678;2023-12-14T03:38:52;7.10;95.20
3850;DHT22;1940;51.052;13.678;2023-12-14T03:41:17;7.00;95.20
3850;DHT22;1940;51.052;13.678;2023-12-14T03:43:43;6.90;95.20
3850;DHT22;1940;51.052;13.678;2023-12-14T03:46:09;6.90;95.20
3850;DHT22;1940;51.052;13.678;2023-12-14T03:48:35;7.00;95.20
3850;DHT22;1940;51.052;13.678;2023-12-14T03:51:04;6.90;95.20
3850;DHT22;1940;51.052;13.678;2023-12-14T03:53:30;6.90;95.20
3850;DHT22;1940;51.052;13.678;2023-12-14T03:55:57;6.90;95.20
3850;DHT22;1940;51.052;13.678;2023-12-14T03:58:23;6.90;95.20
3850;DHT22;1940;51.052;13.678;2023-12-14T04:00:48;6.80;95.20
3850;DHT22;1940;51.052;13.678;2023-12-14T04:03:14;6.80;95.20
3850;DHT22;1940;51.052;13.678;2023-12-14T04:05:39;6.80;95.20
3850;DHT22;1940;51.052;13.678;2023-12-14T04:08:05;6.90;95.20
3850;DHT22;1940;51.052;13.678;2023-12-14T04:10:31;7.00;95.20
3850;DHT22;1940;51.052;13.678;2023-12-14T04:12:56;7.00;95.20
3850;DHT22;1940;51.052;13.678;2023-12-14T04:15:22;7.10;95.20
3850;DHT22;1940;51.052;13.678;2023-12-14T04:17:47;7.10;95.20
3850;DHT22;1940;51.052;13.678;2023-12-14T04:20:14;7.10;95.20
3850;DHT22;1940;51.052;13.678;2023-12-14T04:22:42;7.20;95.20
3850;DHT22;1940;51.052;13.678;2023-12-14T04:25:08;7.20;95.20
3850;DHT22;1940;51.052;13.678;2023-12-14T04:27:34;7.20;95.20
3850;DHT22;1940;51.052;13.678;2023-12-14T04:29:59;7.00;95.20
3850;DHT22;1940;51.052;13.678;2023-12-14T04:32:25;7.00;95.20
3850;DHT22;1940;51.052;13.678;2023-12-14T04:34:50;7.10;95.20
3850;DHT22;1940;51.052;13.678;2023-12-14T04:37:16;7.00;95.20
3850;DHT22;1940;51.052;13.678;2023-12-14T04:39:42;7.00;95.20
3850;DHT22;1940;51.052;13.678;2023-12-14T04:42:07;6.90;95.20
3850;DHT22;1940;51.052;13.678;2023-12-14T04:44:33;6.80;95.20
3850;DHT22;1940;51.052;13.678;2023-12-14T04:46:58;6.80;95.20
3850;DHT22;1940;51.052;13.678;2023-12-14T04:49:24;6.80;95.20
3850;DHT22;1940;51.052;13.678;2023-12-14T04:51:49;6.90;95.20
3850;DHT22;1940;51.052;13.678;2023-12-14T04:54:15;7.00;95.20
3850;DHT22;1940;51.052;13.678;2023-12-14T04:56:40;7.00;95.20
3850;DHT22;1940;51.052;13.678;2023-12-14T04:59:07;7.10;95.20
3850;DHT22;1940;51.052;13.678;2023-12-14T05:01:32;7.10;95.20
3850;DHT22;1940;51.052;13.678;2023-12-14T05:03:58;7.20;95.20
3850;DHT22;1940;51.052;13.678;2023-12-14T05:06:23;7.20;95.20
3850;DHT22;1940;51.052;13.678;2023-12-14T05:08:49;7.20;95.20
3850;DHT22;1940;51.052;13.678;2023-12-14T05:11:14;7.10;95.20
3850;DHT22;1940;51.052;13.678;2023-12-14T05:13:40;7.10;95.20
3850;DHT22;1940;51.052;13.678;2023-12-14T05:16:06;7.10;95.20
3850;DHT22;1940;51.052;13.678;2023-12-14T05:18:32;7.20;95.20
3850;DHT22;1940;51.052;13.678;2023-12-14T05:20:58;7.20;95.20
3850;DHT22;1940;51.052;13.678;2023-12-14T05:23:24;7.20;95.20
3850;DHT22;1940;51.052;13.678;2023-12-14T05:25:50;7.20;95.20
3850;DHT22;1940;51.052;13.678;2023-12-14T05:28:15;7.20;95.20
3850;DHT22;1940;51.052;13.678;2023-12-14T05:30:41;7.10;95.20
3850;DHT22;1940;51.052;13.678;2023-12-14T05:33:07;7.10;95.20
3850;DHT22;1940;51.052;13.678;2023-12-14T05:35:32;7.20;95.20
3850;DHT22;1940;51.052;13.678;2023-12-14T05:37:58;7.20;95.20
3850;DHT22;1940;51.052;13.678;2023-12-14T05:40:23;7.10;95.20
3850;DHT22;1940;51.052;13.678;2023-12-14T05:42:49;7.10;95.20
3850;DHT22;1940;51.052;13.678;2023-12-14T05:45:14;7.00;95.20
3850;DHT22;1940;51.052;13.678;2023-12-14T05:47:40;7.00;95.20
3850;DHT22;1940;51.052;13.678;2023-12-14T05:50:07;7.00;95.20
3850;DHT22;1940;51.052;13.678;2023-12-14T05:52:35;7.00;95.20
3850;DHT22;1940;51.052;13.678;2023-12-14T05:55:00;7.00;95.20
3850;DHT22;1940;51.052;13.678;2023-12-14T05:57:26;7.00;95.20
3850;DHT22;1940;51.052;13.678;2023-12-14T05:59:51;7.00;95.20
3850;DHT22;1940;51.052;13.678;2023-12-14T06:02:17;6.90;95.20
3850;DHT22;1940;51.052;13.678;2023-12-14T06:04:42;6.90;95.20
3850;DHT22;1940;51.052;13.678;2023-12-14T06:07:08;6.80;95.20
3850;DHT22;1940;51.052;13.678;2023-12-14T06:09:34;6.80;95.20
3850;DHT22;1940;51.052;13.678;2023-12-14T06:12:03;6.90;95.20
3850;DHT22;1940;51.052;13.678;2023-12-14T06:14:30;6.90;95.20
3850;DHT22;1940;51.052;13.678;2023-12-14T06:16:56;6.90;95.20
3850;DHT22;1940;51.052;13.678;2023-12-14T06:19:22;6.80;95.20
3850;DHT22;1940;51.052;13.678;2023-12-14T06:21:48;6.70;95.20
3850;DHT22;1940;51.052;13.678;2023-12-14T06:24:14;6.60;95.20
3850;DHT22;1940;51.052;13.678;2023-12-14T06:26:43;6.50;95.20
3850;DHT22;1940;51.052;13.678;2023-12-14T06:29:09;6.50;95.20
3850;DHT22;1940;51.052;13.678;2023-12-14T06:31:35;6.50;95.20
3850;DHT22;1940;51.052;13.678;2023-12-14T06:34:00;6.40;95.20
3850;DHT22;1940;51.052;13.678;2023-12-14T06:36:32;6.40;95.20
3850;DHT22;1940;51.052;13.678;2023-12-14T06:38:59;6.30;95.20
3850;DHT22;1940;51.052;13.678;2023-12-14T06:41:25;6.30;95.20
3850;DHT22;1940;51.052;13.678;2023-12-14T06:43:51;6.30;95.20
3850;DHT22;1940;51.052;13.678;2023-12-14T06:46:17;6.20;95.20
3850;DHT22;1940;51.052;13.678;2023-12-14T06:48:43;6.20;95.20
3850;DHT22;1940;51.052;13.678;2023-12-14T06:51:08;6.20;95.20
3850;DHT22;1940;51.052;13.678;2023-12-14T06:53:34;6.30;95.20
3850;DHT22;1940;51.052;13.678;2023-12-14T06:56:00;6.20;95.20
3850;DHT22;1940;51.052;13.678;2023-12-14T06:58:26;6.10;95.20
3850;DHT22;1940;51.052;13.678;2023-12-14T07:00:52;6.10;95.20
3850;DHT22;1940;51.052;13.678;2023-12-14T07:03:18;6.20;95.20
3850;DHT22;1940;51.052;13.678;2023-12-14T07:05:43;6.20;95.20
3850;DHT22;1940;51.052;13.678;2023-12-14T07:08:09;6.20;95.20
3850;DHT22;1940;51.052;13.678;2023-12-14T07:10:34;6.20;95.20
3850;DHT22;1940;51.052;13.678;2023-12-14T07:12:59;6.10;95.20
3850;DHT22;1940;51.052;13.678;2023-12-14T07:15:25;6.10;95.20
3850;DHT22;1940;51.052;13.678;2023-12-14T07:17:50;6.10;95.20
3850;DHT22;1940;51.052;13.678;2023-12-14T07:20:16;6.10;95.20
3850;DHT22;1940;51.052;13.678;2023-12-14T07:22:41;5.90;95.20
3850;DHT22;1940;51.052;13.678;2023-12-14T07:25:08;5.90;95.20
3850;DHT22;1940;51.052;13.678;2023-12-14T07:27:33;5.80;95.20
3850;DHT22;1940;51.052;13.678;2023-12-14T07:29:59;5.80;95.20
3850;DHT22;1940;51.052;13.678;2023-12-14T07:32:24;5.80;95.20
3850;DHT22;1940;51.052;13.678;2023-12-14T07:34:50;5.80;95.20
3850;DHT22;1940;51.052;13.678;2023-12-14T07:37:15;5.90;95.20
3850;DHT22;1940;51.052;13.678;2023-12-14T07:39:41;5.90;95.20
3850;DHT22;1940;51.052;13.678;2023-12-14T07:42:06;5.90;95.20
3850;DHT22;1940;51.052;13.678;2023-12-14T07:44:32;5.90;95.20
3850;DHT22;1940;51.052;13.678;2023-12-14T07:46:59;5.90;95.20
3850;DHT22;1940;51.052;13.678;2023-12-14T07:49:25;6.00;95.20
3850;DHT22;1940;51.052;13.678;2023-12-14T07:51:51;6.00;95.20
3850;DHT22;1940;51.052;13.678;2023-12-14T07:54:17;6.10;95.20
3850;DHT22;1940;51.052;13.678;2023-12-14T07:56:43;6.10;95.20
3850;DHT22;1940;51.052;13.678;2023-12-14T07:59:09;6.10;95.20
3850;DHT22;1940;51.052;13.678;2023-12-14T08:01:35;5.90;95.20
3850;DHT22;1940;51.052;13.678;2023-12-14T08:04:02;5.90;95.20
3850;DHT22;1940;51.052;13.678;2023-12-14T08:06:27;5.90;95.20
3850;DHT22;1940;51.052;13.678;2023-12-14T08:08:54;5.90;95.20
3850;DHT22;1940;51.052;13.678;2023-12-14T08:11:19;6.00;95.20
3850;DHT22;1940;51.052;13.678;2023-12-14T08:13:45;6.00;95.20
3850;DHT22;1940;51.052;13.678;2023-12-14T08:16:11;5.90;95.20
3850;DHT22;1940;51.052;13.678;2023-12-14T08:18:41;5.80;95.20
3850;DHT22;1940;51.052;13.678;2023-12-14T08:21:07;5.90;95.20
3850;DHT22;1940;51.052;13.678;2023-12-14T08:23:33;5.90;95.20
3850;DHT22;1940;51.052;13.678;2023-12-14T08:25:58;5.90;95.20
3850;DHT22;1940;51.052;13.678;2023-12-14T08:28:24;6.00;95.20
3850;DHT22;1940;51.052;13.678;2023-12-14T08:30:50;6.00;95.20
3850;DHT22;1940;51.052;13.678;2023-12-14T08:33:16;5.90;95.20
3850;DHT22;1940;51.052;13.678;2023-12-14T08:35:41;5.90;95.20
3850;DHT22;1940;51.052;13.678;2023-12-14T08:38:07;5.90;95.20
3850;DHT22;1940;51.052;13.678;2023-12-14T08:40:32;5.90;95.20
3850;DHT22;1940;51.052;13.678;2023-12-14T08:42:58;6.00;95.20
3850;DHT22;1940;51.052;13.678;2023-12-14T08:45:24;5.90;95.20
3850;DHT22;1940;51.052;13.678;2023-12-14T08:47:49;6.00;95.20
3850;DHT22;1940;51.052;13.678;2023-12-14T08:50:15;6.00;95.20
3850;DHT22;1940;51.052;13.678;2023-12-14T08:52:41;6.00;95.20
3850;DHT22;1940;51.052;13.678;2023-12-14T08:55:07;6.00;95.20
3850;DHT22;1940;51.052;13.678;2023-12-14T08:57:33;5.90;95.20
3850;DHT22;1940;51.052;13.678;2023-12-14T08:59:58;5.90;95.20
3850;DHT22;1940;51.052;13.678;2023-12-14T09:02:24;5.90;95.20
3850;DHT22;1940;51.052;13.678;2023-12-14T09:04:49;5.90;95.20
3850;DHT22;1940;51.052;13.678;2023-12-14T09:07:14;5.90;95.20
3850;DHT22;1940;51.052;13.678;2023-12-14T09:09:40;5.90;95.20
3850;DHT22;1940;51.052;13.678;2023-12-14T09:12:06;5.90;95.20
3850;DHT22;1940;51.052;13.678;2023-12-14T09:14:31;5.80;95.20
3850;DHT22;1940;51.052;13.678;2023-12-14T09:16:57;5.90;95.20
3850;DHT22;1940;51.052;13.678;2023-12-14T09:19:23;5.80;95.20
3850;DHT22;1940;51.052;13.678;2023-12-14T09:21:48;5.70;95.20
3850;DHT22;1940;51.052;13.678;2023-12-14T09:24:14;5.70;95.20
3850;DHT22;1940;51.052;13.678;2023-12-14T09:26:39;5.60;95.20
3850;DHT22;1940;51.052;13.678;2023-12-14T09:29:05;5.60;95.20
3850;DHT22;1940;51.052;13.678;2023-12-14T09:31:30;5.60;95.20
3850;DHT22;1940;51.052;13.678;2023-12-14T09:33:56;5.60;95.20
3850;DHT22;1940;51.052;13.678;2023-12-14T09:36:21;5.60;95.20
3850;DHT22;1940;51.052;13.678;2023-12-14T09:38:47;5.50;95.20
3850;DHT22;1940;51.052;13.678;2023-12-14T09:41:13;5.50;95.20
3850;DHT22;1940;51.052;13.678;2023-12-14T09:43:38;5.50;95.20
3850;DHT22;1940;51.052;13.678;2023-12-14T09:46:04;5.60;95.20
3850;DHT22;1940;51.052;13.678;2023-12-14T09:48:30;5.60;95.20
3850;DHT22;1940;51.052;13.678;2023-12-14T09:50:56;5.60;95.20
3850;DHT22;1940;51.052;13.678;2023-12-14T09:53:22;5.50;95.20
3850;DHT22;1940;51.052;13.678;2023-12-14T09:55:47;5.50;95.20
3850;DHT22;1940;51.052;13.678;2023-12-14T09:58:13;5.50;95.20
3850;DHT22;1940;51.052;13.678;2023-12-14T10:00:40;5.60;95.20
3850;DHT22;1940;51.052;13.678;2023-12-14T10:03:26;5.60;95.20
3850;DHT22;1940;51.052;13.678;2023-12-14T10:05:53;5.60;95.20
3850;DHT22;1940;51.052;13.678;2023-12-14T10:08:19;5.50;95.20
3850;DHT22;1940;51.052;13.678;2023-12-14T10:10:47;5.50;95.20
3850;DHT22;1940;51.052;13.678;2023-12-14T10:13:14;5.50;95.20
3850;DHT22;1940;51.052;13.678;2023-12-14T10:19:02;5.50;95.20
3850;DHT22;1940;51.052;13.678;2023-12-14T10:21:28;5.40;95.20
3850;DHT22;1940;51.052;13.678;2023-12-14T10:23:57;5.50;95.20
3850;DHT22;1940;51.052;13.678;2023-12-14T10:26:23;5.30;95.20
3850;DHT22;1940;51.052;13.678;2023-12-14T10:28:50;5.30;95.20
3850;DHT22;1940;51.052;13.678;2023-12-14T10:31:17;5.30;95.20
3850;DHT22;1940;51.052;13.678;2023-12-14T10:33:44;5.30;95.20
3850;DHT22;1940;51.052;13.678;2023-12-14T10:36:09;5.20;95.20
3850;DHT22;1940;51.052;13.678;2023-12-14T10:38:37;5.10;95.20
3850;DHT22;1940;51.052;13.678;2023-12-14T10:41:04;5.20;95.20
3850;DHT22;1940;51.052;13.678;2023-12-14T10:43:30;5.20;95.20
3850;DHT22;1940;51.052;13.678;2023-12-14T10:45:58;5.20;95.20
3850;DHT22;1940;51.052;13.678;2023-12-14T10:48:24;5.30;95.20
3850;DHT22;1940;51.052;13.678;2023-12-14T10:50:51;5.30;95.20
3850;DHT22;1940;51.052;13.678;2023-12-14T10:53:19;5.40;95.20
3850;DHT22;1940;51.052;13.678;2023-12-14T10:55:44;5.40;95.20
3850;DHT22;1940;51.052;13.678;2023-12-14T10:58:11;5.40;95.20
3850;DHT22;1940;51.052;13.678;2023-12-14T11:00:37;5.30;95.20
3850;DHT22;1940;51.052;13.678;2023-12-14T11:03:06;5.30;95.20
3850;DHT22;1940;51.052;13.678;2023-12-14T11:05:34;5.40;95.20
3850;DHT22;1940;51.052;13.678;2023-12-14T11:08:03;5.40;95.20
3850;DHT22;1940;51.052;13.678;2023-12-14T11:10:53;5.50;95.20
3850;DHT22;1940;51.052;13.678;2023-12-14T11:13:21;5.40;95.20
3850;DHT22;1940;51.052;13.678;2023-12-14T11:15:51;5.40;95.20
3850;DHT22;1940;51.052;13.678;2023-12-14T11:18:21;5.50;95.20
3850;DHT22;1940;51.052;13.678;2023-12-14T11:20:54;5.60;95.20
3850;DHT22;1940;51.052;13.678;2023-12-14T11:25:58;5.40;95.20
3850;DHT22;1940;51.052;13.678;2023-12-14T11:28:24;5.30;95.20
3850;DHT22;1940;51.052;13.678;2023-12-14T11:30:50;5.30;95.20
3850;DHT22;1940;51.052;13.678;2023-12-14T11:33:16;5.30;95.20
3850;DHT22;1940;51.052;13.678;2023-12-14T11:35:42;5.30;95.20
3850;DHT22;1940;51.052;13.678;2023-12-14T11:38:07;5.30;95.20
3850;DHT22;1940;51.052;13.678;2023-12-14T11:40:44;5.40;95.20
3850;DHT22;1940;51.052;13.678;2023-12-14T11:43:09;5.50;95.20
3850;DHT22;1940;51.052;13.678;2023-12-14T11:45:39;5.30;95.20
3850;DHT22;1940;51.052;13.678;2023-12-14T11:48:10;5.30;95.20
3850;DHT22;1940;51.052;13.678;2023-12-14T11:50:41;5.30;95.20
3850;DHT22;1940;51.052;13.678;2023-12-14T11:53:08;5.30;95.20
3850;DHT22;1940;51.052;13.678;2023-12-14T11:55:36;5.40;95.20
3850;DHT22;1940;51.052;13.678;2023-12-14T11:58:03;5.40;95.20
3850;DHT22;1940;51.052;13.678;2023-12-14T12:00:29;5.40;95.20
3850;DHT22;1940;51.052;13.678;2023-12-14T12:03:18;5.40;95.20
3850;DHT22;1940;51.052;13.678;2023-12-14T12:05:48;5.50;95.20
3850;DHT22;1940;51.052;13.678;2023-12-14T12:08:16;5.50;95.20
3850;DHT22;1940;51.052;13.678;2023-12-14T12:10:44;5.50;95.20
3850;DHT22;1940;51.052;13.678;2023-12-14T12:13:19;5.50;95.20
3850;DHT22;1940;51.052;13.678;2023-12-14T12:15:45;5.50;95.20
3850;DHT22;1940;51.052;13.678;2023-12-14T12:18:12;5.50;95.20
3850;DHT22;1940;51.052;13.678;2023-12-14T12:20:39;5.50;95.20
3850;DHT22;1940;51.052;13.678;2023-12-14T12:23:04;5.50;95.20
3850;DHT22;1940;51.052;13.678;2023-12-14T12:25:31;5.40;95.20
3850;DHT22;1940;51.052;13.678;2023-12-14T12:27:57;5.40;95.20
3850;DHT22;1940;51.052;13.678;2023-12-14T12:30:23;5.20;95.20
3850;DHT22;1940;51.052;13.678;2023-12-14T12:32:49;5.20;95.20
3850;DHT22;1940;51.052;13.678;2023-12-14T12:35:16;5.20;95.20
3850;DHT22;1940;51.052;13.678;2023-12-14T12:37:41;5.20;95.20
3850;DHT22;1940;51.052;13.678;2023-12-14T12:40:08;5.10;95.20
3850;DHT22;1940;51.052;13.678;2023-12-14T12:42:33;5.00;95.20
3850;DHT22;1940;51.052;13.678;2023-12-14T12:44:59;5.10;95.20
3850;DHT22;1940;51.052;13.678;2023-12-14T12:47:24;5.10;95.20
3850;DHT22;1940;51.052;13.678;2023-12-14T12:49:50;5.10;95.20
3850;DHT22;1940;51.052;13.678;2023-12-14T12:52:15;5.10;95.20
3850;DHT22;1940;51.052;13.678;2023-12-14T12:54:41;5.10;95.20
3850;DHT22;1940;51.052;13.678;2023-12-14T12:57:06;5.10;95.20
3850;DHT22;1940;51.052;13.678;2023-12-14T12:59:32;5.00;95.20
3850;DHT22;1940;51.052;13.678;2023-12-14T13:01:58;4.90;95.20
3850;DHT22;1940;51.052;13.678;2023-12-14T13:04:24;4.90;95.20
3850;DHT22;1940;51.052;13.678;2023-12-14T13:06:51;4.90;95.20
3850;DHT22;1940;51.052;13.678;2023-12-14T13:09:18;4.90;95.20
3850;DHT22;1940;51.052;13.678;2023-12-14T13:11:46;4.90;95.20
3850;DHT22;1940;51.052;13.678;2023-12-14T13:14:12;4.90;95.20
3850;DHT22;1940;51.052;13.678;2023-12-14T13:16:38;4.90;95.20
3850;DHT22;1940;51.052;13.678;2023-12-14T13:19:04;4.90;95.20
3850;DHT22;1940;51.052;13.678;2023-12-14T13:21:31;4.90;95.20
3850;DHT22;1940;51.052;13.678;2023-12-14T13:23:59;4.80;95.20
3850;DHT22;1940;51.052;13.678;2023-12-14T13:26:24;4.80;95.20
3850;DHT22;1940;51.052;13.678;2023-12-14T13:28:51;4.80;95.20
3850;DHT22;1940;51.052;13.678;2023-12-14T13:31:16;4.80;95.20
3850;DHT22;1940;51.052;13.678;2023-12-14T13:33:42;4.80;95.20
3850;DHT22;1940;51.052;13.678;2023-12-14T13:36:08;4.90;95.20
3850;DHT22;1940;51.052;13.678;2023-12-14T13:38:34;4.90;95.20
3850;DHT22;1940;51.052;13.678;2023-12-14T13:41:01;4.80;95.20
3850;DHT22;1940;51.052;13.678;2023-12-14T13:43:28;4.80;95.20
3850;DHT22;1940;51.052;13.678;2023-12-14T13:45:54;4.80;95.20
3850;DHT22;1940;51.052;13.678;2023-12-14T13:48:26;4.70;95.20
3850;DHT22;1940;51.052;13.678;2023-12-14T13:50:55;4.80;95.20
3850;DHT22;1940;51.052;13.678;2023-12-14T13:53:21;4.80;95.20
3850;DHT22;1940;51.052;13.678;2023-12-14T13:55:47;4.70;95.20
3850;DHT22;1940;51.052;13.678;2023-12-14T13:58:16;4.60;95.20
3850;DHT22;1940;51.052;13.678;2023-12-14T14:00:42;4.60;95.20
3850;DHT22;1940;51.052;13.678;2023-12-14T14:03:09;4.60;95.20
3850;DHT22;1940;51.052;13.678;2023-12-14T14:05:34;4.70;95.20
3850;DHT22;1940;51.052;13.678;2023-12-14T14:08:00;4.60;95.20
3850;DHT22;1940;51.052;13.678;2023-12-14T14:10:26;4.70;95.20
3850;DHT22;1940;51.052;13.678;2023-12-14T14:12:52;4.70;95.20
3850;DHT22;1940;51.052;13.678;2023-12-14T14:15:18;4.60;95.20
3850;DHT22;1940;51.052;13.678;2023-12-14T14:17:45;4.60;95.20
3850;DHT22;1940;51.052;13.678;2023-12-14T14:20:13;4.60;95.20
3850;DHT22;1940;51.052;13.678;2023-12-14T14:22:38;4.60;95.20
3850;DHT22;1940;51.052;13.678;2023-12-14T14:25:05;4.50;95.20
3850;DHT22;1940;51.052;13.678;2023-12-14T14:27:34;4.50;95.20
3850;DHT22;1940;51.052;13.678;2023-12-14T14:30:00;4.50;95.20
3850;DHT22;1940;51.052;13.678;2023-12-14T14:32:26;4.50;95.20
3850;DHT22;1940;51.052;13.678;2023-12-14T14:34:52;4.50;95.20
3850;DHT22;1940;51.052;13.678;2023-12-14T14:37:19;4.50;95.20
3850;DHT22;1940;51.052;13.678;2023-12-14T14:39:45;4.40;95.20
3850;DHT22;1940;51.052;13.678;2023-12-14T14:42:10;4.30;95.20
3850;DHT22;1940;51.052;13.678;2023-12-14T14:44:36;4.30;95.20
3850;DHT22;1940;51.052;13.678;2023-12-14T14:47:02;4.40;95.20
3850;DHT22;1940;51.052;13.678;2023-12-14T14:49:28;4.40;95.20
3850;DHT22;1940;51.052;13.678;2023-12-14T14:51:54;4.30;95.20
3850;DHT22;1940;51.052;13.678;2023-12-14T14:54:19;4.30;95.20
3850;DHT22;1940;51.052;13.678;2023-12-14T14:56:45;4.40;95.20
3850;DHT22;1940;51.052;13.678;2023-12-14T14:59:13;4.40;95.20
3850;DHT22;1940;51.052;13.678;2023-12-14T15:01:41;4.50;95.20
3850;DHT22;1940;51.052;13.678;2023-12-14T15:04:07;4.50;95.20
3850;DHT22;1940;51.052;13.678;2023-12-14T15:06:33;4.50;95.20
3850;DHT22;1940;51.052;13.678;2023-12-14T15:08:59;4.40;95.20
3850;DHT22;1940;51.052;13.678;2023-12-14T15:11:24;4.40;95.20
3850;DHT22;1940;51.052;13.678;2023-12-14T15:13:50;4.40;95.20
3850;DHT22;1940;51.052;13.678;2023-12-14T15:16:16;4.40;95.20
3850;DHT22;1940;51.052;13.678;2023-12-14T15:18:41;4.40;95.20
3850;DHT22;1940;51.052;13.678;2023-12-14T15:21:08;4.40;95.20
3850;DHT22;1940;51.052;13.678;2023-12-14T15:23:33;4.40;95.20
3850;DHT22;1940;51.052;13.678;2023-12-14T15:25:59;4.50;95.20
3850;DHT22;1940;51.052;13.678;2023-12-14T15:28:24;4.50;95.20
3850;DHT22;1940;51.052;13.678;2023-12-14T15:30:50;4.40;95.20
3850;DHT22;1940;51.052;13.678;2023-12-14T15:33:15;4.40;95.20
3850;DHT22;1940;51.052;13.678;2023-12-14T15:35:41;4.30;95.20
3850;DHT22;1940;51.052;13.678;2023-12-14T15:38:07;4.30;95.20
3850;DHT22;1940;51.052;13.678;2023-12-14T15:40:32;4.40;95.20
3850;DHT22;1940;51.052;13.678;2023-12-14T15:42:58;4.40;95.20
3850;DHT22;1940;51.052;13.678;2023-12-14T15:45:23;4.40;95.20
3850;DHT22;1940;51.052;13.678;2023-12-14T15:47:49;4.40;95.20
3850;DHT22;1940;51.052;13.678;2023-12-14T15:50:16;4.40;95.20
3850;DHT22;1940;51.052;13.678;2023-12-14T15:52:41;4.30;95.20
3850;DHT22;1940;51.052;13.678;2023-12-14T15:55:07;4.30;95.20
3850;DHT22;1940;51.052;13.678;2023-12-14T15:57:33;4.30;95.20
3850;DHT22;1940;51.052;13.678;2023-12-14T15:59:58;4.30;95.20